sensor_id;sensor_type;location;lat;lon;timestamp;P1;durP1;ratioP1;P2;durP2;ratioP2
12232;SDS011;6179;51.748;8.728;2024-01-27T00:05:30;3.13;;;1.10;;
12232;SDS011;6179;51.748;8.728;2024-01-27T00:11:30;17.43;;;1.60;;
12232;SDS011;6179;51.748;8.728;2024-01-27T00:17:32;11.13;;;1.00;;
12232;SDS011;6179;51.748;8.728;2024-01-27T00:23:34;6.03;;;1.23;;
12232;SDS011;6179;51.748;8.728;2024-01-27T00:29:35;10.10;;;1.20;;
12232;SDS011;6179;51.748;8.728;2024-01-27T00:35:35;11.27;;;1.80;;
12232;SDS011;6179;51.748;8.728;2024-01-27T00:41:36;23.53;;;1.03;;
12232;SDS011;6179;51.748;8.728;2024-01-27T00:47:37;27.57;;;1.53;;
12232;SDS011;6179;51.748;8.728;2024-01-27T00:53:38;20.37;;;1.60;;
12232;SDS011;6179;51.748;8.728;2024-01-27T00:59:39;10.30;;;0.70;;
12232;SDS011;6179;51.748;8.728;2024-01-27T01:05:40;7.47;;;1.20;;
12232;SDS011;6179;51.748;8.728;2024-01-27T01:11:41;9.03;;;1.70;;
12232;SDS011;6179;51.748;8.728;2024-01-27T01:17:42;20.10;;;1.90;;
12232;SDS011;6179;51.748;8.728;2024-01-27T01:23:42;7.53;;;1.97;;
12232;SDS011;6179;51.748;8.728;2024-01-27T01:29:43;16.20;;;1.93;;
12232;SDS011;6179;51.748;8.728;2024-01-27T01:35:44;18.13;;;1.73;;
12232;SDS011;6179;51.748;8.728;2024-01-27T01:41:45;10.37;;;0.73;;
12232;SDS011;6179;51.748;8.728;2024-01-27T01:47:46;15.70;;;1.90;;
12232;SDS011;6179;51.748;8.728;2024-01-27T01:53:47;17.50;;;1.60;;
12232;SDS011;6179;51.748;8.728;2024-01-27T01:59:49;24.30;;;2.13;;
12232;SDS011;6179;51.748;8.728;2024-01-27T02:05:50;11.20;;;2.57;;
12232;SDS011;6179;51.748;8.728;2024-01-27T02:11:51;10.23;;;2.77;;
12232;SDS011;6179;51.748;8.728;2024-01-27T02:17:52;40.20;;;3.37;;
12232;SDS011;6179;51.748;8.728;2024-01-27T02:23:53;13.33;;;1.77;;
12232;SDS011;6179;51.748;8.728;2024-01-27T02:29:54;10.30;;;2.53;;
12232;SDS011;6179;51.748;8.728;2024-01-27T02:35:54;20.83;;;2.30;;
12232;SDS011;6179;51.748;8.728;2024-01-27T02:41:55;4.07;;;1.43;;
12232;SDS011;6179;51.748;8.728;2024-01-27T02:47:56;8.40;;;2.07;;
12232;SDS011;6179;51.748;8.728;2024-01-27T02:53:57;13.83;;;3.10;;
12232;SDS011;6179;51.748;8.728;2024-01-27T02:59:57;13.57;;;1.87;;
12232;SDS011;6179;51.748;8.728;2024-01-27T03:05:58;10.90;;;1.60;;
12232;SDS011;6179;51.748;8.728;2024-01-27T03:11:59;14.50;;;2.20;;
12232;SDS011;6179;51.748;8.728;2024-01-27T03:18:00;7.97;;;2.30;;
12232;SDS011;6179;51.748;8.728;2024-01-27T03:24:00;16.97;;;3.50;;
12232;SDS011;6179;51.748;8.728;2024-01-27T03:30:02;8.13;;;2.10;;
12232;SDS011;6179;51.748;8.728;2024-01-27T03:36:08;11.10;;;3.50;;
12232;SDS011;6179;51.748;8.728;2024-01-27T03:42:11;16.33;;;3.00;;
12232;SDS011;6179;51.748;8.728;2024-01-27T03:48:12;9.37;;;2.27;;
12232;SDS011;6179;51.748;8.728;2024-01-27T03:54:12;28.63;;;2.70;;
12232;SDS011;6179;51.748;8.728;2024-01-27T04:00:13;16.93;;;3.23;;
12232;SDS011;6179;51.748;8.728;2024-01-27T04:06:14;16.40;;;2.30;;
12232;SDS011;6179;51.748;8.728;2024-01-27T04:12:15;11.53;;;2.10;;
12232;SDS011;6179;51.748;8.728;2024-01-27T04:18:16;26.67;;;3.87;;
12232;SDS011;6179;51.748;8.728;2024-01-27T04:24:17;8.67;;;2.83;;
12232;SDS011;6179;51.748;8.728;2024-01-27T04:30:17;16.50;;;1.90;;
12232;SDS011;6179;51.748;8.728;2024-01-27T04:36:25;7.20;;;2.70;;
12232;SDS011;6179;51.748;8.728;2024-01-27T04:42:29;6.20;;;2.37;;
12232;SDS011;6179;51.748;8.728;2024-01-27T04:48:30;11.03;;;2.00;;
12232;SDS011;6179;51.748;8.728;2024-01-27T04:54:31;8.50;;;2.70;;
12232;SDS011;6179;51.748;8.728;2024-01-27T05:00:32;22.33;;;2.97;;
12232;SDS011;6179;51.748;8.728;2024-01-27T05:06:33;17.50;;;3.63;;
12232;SDS011;6179;51.748;8.728;2024-01-27T05:12:33;5.53;;;2.33;;
12232;SDS011;6179;51.748;8.728;2024-01-27T05:18:34;14.13;;;3.67;;
12232;SDS011;6179;51.748;8.728;2024-01-27T05:24:35;9.43;;;3.23;;
12232;SDS011;6179;51.748;8.728;2024-01-27T05:30:35;5.60;;;2.40;;
12232;SDS011;6179;51.748;8.728;2024-01-27T05:36:36;15.87;;;2.53;;
12232;SDS011;6179;51.748;8.728;2024-01-27T05:42:37;12.70;;;3.83;;
12232;SDS011;6179;51.748;8.728;2024-01-27T05:48:40;5.80;;;3.50;;
12232;SDS011;6179;51.748;8.728;2024-01-27T05:54:41;14.23;;;2.80;;
12232;SDS011;6179;51.748;8.728;2024-01-27T06:00:45;4.67;;;2.60;;
12232;SDS011;6179;51.748;8.728;2024-01-27T06:06:45;17.37;;;3.93;;
12232;SDS011;6179;51.748;8.728;2024-01-27T06:12:47;10.33;;;3.43;;
12232;SDS011;6179;51.748;8.728;2024-01-27T06:18:48;3.93;;;1.60;;
12232;SDS011;6179;51.748;8.728;2024-01-27T06:24:48;23.77;;;5.10;;
12232;SDS011;6179;51.748;8.728;2024-01-27T06:30:49;7.70;;;2.53;;
12232;SDS011;6179;51.748;8.728;2024-01-27T06:36:50;8.90;;;3.40;;
12232;SDS011;6179;51.748;8.728;2024-01-27T06:42:51;8.37;;;2.97;;
12232;SDS011;6179;51.748;8.728;2024-01-27T06:48:52;7.33;;;2.40;;
12232;SDS011;6179;51.748;8.728;2024-01-27T06:54:53;10.73;;;3.20;;
12232;SDS011;6179;51.748;8.728;2024-01-27T07:00:54;14.77;;;4.83;;
12232;SDS011;6179;51.748;8.728;2024-01-27T07:06:55;6.53;;;3.47;;
12232;SDS011;6179;51.748;8.728;2024-01-27T07:12:56;12.73;;;3.87;;
12232;SDS011;6179;51.748;8.728;2024-01-27T07:18:56;6.10;;;3.63;;
12232;SDS011;6179;51.748;8.728;2024-01-27T07:24:57;8.37;;;4.70;;
12232;SDS011;6179;51.748;8.728;2024-01-27T07:30:58;8.70;;;3.50;;
12232;SDS011;6179;51.748;8.728;2024-01-27T07:36:59;12.30;;;2.93;;
12232;SDS011;6179;51.748;8.728;2024-01-27T07:42:59;9.73;;;4.47;;
12232;SDS011;6179;51.748;8.728;2024-01-27T07:49:00;11.23;;;5.97;;
12232;SDS011;6179;51.748;8.728;2024-01-27T07:55:03;9.67;;;4.70;;
12232;SDS011;6179;51.748;8.728;2024-01-27T08:01:04;15.87;;;3.80;;
12232;SDS011;6179;51.748;8.728;2024-01-27T08:07:05;4.93;;;2.90;;
12232;SDS011;6179;51.748;8.728;2024-01-27T08:13:09;10.73;;;4.47;;
12232;SDS011;6179;51.748;8.728;2024-01-27T08:19:10;10.60;;;4.53;;
12232;SDS011;6179;51.748;8.728;2024-01-27T08:25:11;9.83;;;4.77;;
12232;SDS011;6179;51.748;8.728;2024-01-27T08:31:11;11.53;;;5.30;;
12232;SDS011;6179;51.748;8.728;2024-01-27T08:37:18;19.97;;;4.73;;
12232;SDS011;6179;51.748;8.728;2024-01-27T08:43:19;16.13;;;6.63;;
12232;SDS011;6179;51.748;8.728;2024-01-27T08:49:20;19.23;;;5.83;;
12232;SDS011;6179;51.748;8.728;2024-01-27T08:55:21;9.47;;;4.10;;
12232;SDS011;6179;51.748;8.728;2024-01-27T09:01:24;11.10;;;5.87;;
12232;SDS011;6179;51.748;8.728;2024-01-27T09:07:24;20.00;;;6.03;;
12232;SDS011;6179;51.748;8.728;2024-01-27T09:13:25;29.03;;;6.73;;
12232;SDS011;6179;51.748;8.728;2024-01-27T09:19:26;16.63;;;4.17;;
12232;SDS011;6179;51.748;8.728;2024-01-27T09:25:28;14.53;;;5.50;;
12232;SDS011;6179;51.748;8.728;2024-01-27T09:31:30;11.00;;;2.70;;
12232;SDS011;6179;51.748;8.728;2024-01-27T09:37:30;31.63;;;5.83;;
12232;SDS011;6179;51.748;8.728;2024-01-27T09:43:33;38.77;;;3.30;;
12232;SDS011;6179;51.748;8.728;2024-01-27T09:49:38;9.20;;;2.90;;
12232;SDS011;6179;51.748;8.728;2024-01-27T09:55:41;18.40;;;2.97;;
12232;SDS011;6179;51.748;8.728;2024-01-27T10:01:44;18.53;;;2.83;;
12232;SDS011;6179;51.748;8.728;2024-01-27T10:07:47;7.67;;;2.50;;
12232;SDS011;6179;51.748;8.728;2024-01-27T10:13:57;11.30;;;1.53;;
12232;SDS011;6179;51.748;8.728;2024-01-27T10:20:02;43.67;;;3.77;;
12232;SDS011;6179;51.748;8.728;2024-01-27T10:26:05;4.83;;;1.93;;
12232;SDS011;6179;51.748;8.728;2024-01-27T10:32:08;14.43;;;4.07;;
12232;SDS011;6179;51.748;8.728;2024-01-27T10:38:10;9.93;;;2.53;;
12232;SDS011;6179;51.748;8.728;2024-01-27T10:44:12;16.47;;;2.50;;
12232;SDS011;6179;51.748;8.728;2024-01-27T10:50:16;14.97;;;1.57;;
12232;SDS011;6179;51.748;8.728;2024-01-27T10:56:17;8.47;;;2.67;;
12232;SDS011;6179;51.748;8.728;2024-01-27T11:02:19;5.73;;;1.70;;
12232;SDS011;6179;51.748;8.728;2024-01-27T11:08:22;9.00;;;1.80;;
12232;SDS011;6179;51.748;8.728;2024-01-27T11:14:27;6.50;;;1.97;;
12232;SDS011;6179;51.748;8.728;2024-01-27T11:20:30;6.17;;;1.73;;
12232;SDS011;6179;51.748;8.728;2024-01-27T11:26:32;21.97;;;2.90;;
12232;SDS011;6179;51.748;8.728;2024-01-27T11:32:32;9.10;;;1.37;;
12232;SDS011;6179;51.748;8.728;2024-01-27T11:38:33;7.67;;;2.10;;
12232;SDS011;6179;51.748;8.728;2024-01-27T11:44:34;11.10;;;3.03;;
12232;SDS011;6179;51.748;8.728;2024-01-27T11:50:37;18.87;;;1.83;;
12232;SDS011;6179;51.748;8.728;2024-01-27T11:56:37;16.87;;;1.90;;
12232;SDS011;6179;51.748;8.728;2024-01-27T12:02:39;11.23;;;1.07;;
12232;SDS011;6179;51.748;8.728;2024-01-27T12:08:40;9.73;;;0.83;;
12232;SDS011;6179;51.748;8.728;2024-01-27T12:14:49;7.63;;;1.87;;
12232;SDS011;6179;51.748;8.728;2024-01-27T12:20:55;11.20;;;1.17;;
12232;SDS011;6179;51.748;8.728;2024-01-27T12:27:00;13.40;;;1.37;;
12232;SDS011;6179;51.748;8.728;2024-01-27T12:33:00;7.17;;;0.90;;
12232;SDS011;6179;51.748;8.728;2024-01-27T12:39:09;2.60;;;0.60;;
12232;SDS011;6179;51.748;8.728;2024-01-27T12:45:10;5.93;;;1.13;;
12232;SDS011;6179;51.748;8.728;2024-01-27T12:51:11;7.70;;;0.90;;
12232;SDS011;6179;51.748;8.728;2024-01-27T12:57:12;3.80;;;1.20;;
12232;SDS011;6179;51.748;8.728;2024-01-27T13:03:13;4.53;;;0.60;;
12232;SDS011;6179;51.748;8.728;2024-01-27T13:09:14;9.43;;;2.30;;
12232;SDS011;6179;51.748;8.728;2024-01-27T13:15:15;10.83;;;1.13;;
12232;SDS011;6179;51.748;8.728;2024-01-27T13:21:16;15.83;;;1.27;;
12232;SDS011;6179;51.748;8.728;2024-01-27T13:27:16;17.03;;;1.80;;
12232;SDS011;6179;51.748;8.728;2024-01-27T13:33:17;1.37;;;0.83;;
12232;SDS011;6179;51.748;8.728;2024-01-27T13:39:18;12.83;;;1.60;;
12232;SDS011;6179;51.748;8.728;2024-01-27T13:45:19;13.90;;;1.60;;
12232;SDS011;6179;51.748;8.728;2024-01-27T13:51:19;8.93;;;1.13;;
12232;SDS011;6179;51.748;8.728;2024-01-27T13:57:21;16.70;;;1.43;;
12232;SDS011;6179;51.748;8.728;2024-01-27T14:03:22;6.50;;;1.07;;
12232;SDS011;6179;51.748;8.728;2024-01-27T14:09:23;5.37;;;1.20;;
12232;SDS011;6179;51.748;8.728;2024-01-27T14:15:24;6.37;;;1.83;;
12232;SDS011;6179;51.748;8.728;2024-01-27T14:21:25;8.27;;;1.03;;
12232;SDS011;6179;51.748;8.728;2024-01-27T14:27:27;6.17;;;0.80;;
12232;SDS011;6179;51.748;8.728;2024-01-27T14:33:28;4.17;;;0.77;;
12232;SDS011;6179;51.748;8.728;2024-01-27T14:39:29;11.33;;;1.07;;
12232;SDS011;6179;51.748;8.728;2024-01-27T14:45:31;1.10;;;0.50;;
12232;SDS011;6179;51.748;8.728;2024-01-27T14:51:31;6.50;;;1.40;;
12232;SDS011;6179;51.748;8.728;2024-01-27T14:57:32;15.87;;;1.80;;
12232;SDS011;6179;51.748;8.728;2024-01-27T15:03:33;8.00;;;1.17;;
12232;SDS011;6179;51.748;8.728;2024-01-27T15:09:35;12.37;;;1.30;;
12232;SDS011;6179;51.748;8.728;2024-01-27T15:15:36;6.37;;;1.17;;
12232;SDS011;6179;51.748;8.728;2024-01-27T15:21:40;7.40;;;1.43;;
12232;SDS011;6179;51.748;8.728;2024-01-27T15:27:41;19.20;;;2.10;;
12232;SDS011;6179;51.748;8.728;2024-01-27T15:33:43;14.30;;;1.30;;
12232;SDS011;6179;51.748;8.728;2024-01-27T15:39:44;19.23;;;1.53;;
12232;SDS011;6179;51.748;8.728;2024-01-27T15:45:45;2.80;;;1.30;;
12232;SDS011;6179;51.748;8.728;2024-01-27T15:51:47;7.00;;;1.00;;
12232;SDS011;6179;51.748;8.728;2024-01-27T15:57:48;8.00;;;1.00;;
12232;SDS011;6179;51.748;8.728;2024-01-27T16:03:49;7.70;;;1.60;;
12232;SDS011;6179;51.748;8.728;2024-01-27T16:09:51;3.73;;;1.60;;
12232;SDS011;6179;51.748;8.728;2024-01-27T16:15:55;4.47;;;1.63;;
12232;SDS011;6179;51.748;8.728;2024-01-27T16:21:56;8.43;;;1.70;;
12232;SDS011;6179;51.748;8.728;2024-01-27T16:27:57;6.37;;;1.70;;
12232;SDS011;6179;51.748;8.728;2024-01-27T16:33:58;18.40;;;7.03;;
12232;SDS011;6179;51.748;8.728;2024-01-27T16:39:59;4.60;;;1.37;;
12232;SDS011;6179;51.748;8.728;2024-01-27T16:46:00;6.27;;;1.37;;
12232;SDS011;6179;51.748;8.728;2024-01-27T16:52:01;9.67;;;3.47;;
12232;SDS011;6179;51.748;8.728;2024-01-27T16:58:02;9.03;;;2.60;;
12232;SDS011;6179;51.748;8.728;2024-01-27T17:04:04;9.43;;;3.53;;
12232;SDS011;6179;51.748;8.728;2024-01-27T17:10:07;9.40;;;2.20;;
12232;SDS011;6179;51.748;8.728;2024-01-27T17:16:08;7.20;;;2.90;;
12232;SDS011;6179;51.748;8.728;2024-01-27T17:22:09;15.97;;;5.90;;
12232;SDS011;6179;51.748;8.728;2024-01-27T17:28:11;16.00;;;8.90;;
12232;SDS011;6179;51.748;8.728;2024-01-27T17:34:12;22.70;;;9.40;;
12232;SDS011;6179;51.748;8.728;2024-01-27T17:40:14;16.00;;;6.70;;
12232;SDS011;6179;51.748;8.728;2024-01-27T17:46:16;14.87;;;4.70;;
12232;SDS011;6179;51.748;8.728;2024-01-27T17:52:17;13.67;;;5.30;;
12232;SDS011;6179;51.748;8.728;2024-01-27T17:58:18;5.70;;;3.90;;
12232;SDS011;6179;51.748;8.728;2024-01-27T18:04:19;10.33;;;4.90;;
12232;SDS011;6179;51.748;8.728;2024-01-27T18:10:20;8.63;;;5.50;;
12232;SDS011;6179;51.748;8.728;2024-01-27T18:16:21;13.30;;;3.33;;
12232;SDS011;6179;51.748;8.728;2024-01-27T18:22:23;21.63;;;4.30;;
12232;SDS011;6179;51.748;8.728;2024-01-27T18:28:24;23.27;;;4.40;;
12232;SDS011;6179;51.748;8.728;2024-01-27T18:34:26;11.00;;;4.87;;
12232;SDS011;6179;51.748;8.728;2024-01-27T18:40:27;14.70;;;3.63;;
12232;SDS011;6179;51.748;8.728;2024-01-27T18:46:28;11.03;;;4.13;;
12232;SDS011;6179;51.748;8.728;2024-01-27T18:52:29;11.00;;;3.80;;
12232;SDS011;6179;51.748;8.728;2024-01-27T18:58:31;22.90;;;5.30;;
12232;SDS011;6179;51.748;8.728;2024-01-27T19:04:33;35.33;;;9.30;;
12232;SDS011;6179;51.748;8.728;2024-01-27T19:10:34;19.93;;;6.20;;
12232;SDS011;6179;51.748;8.728;2024-01-27T19:16:34;22.60;;;5.70;;
12232;SDS011;6179;51.748;8.728;2024-01-27T19:22:35;15.20;;;7.93;;
12232;SDS011;6179;51.748;8.728;2024-01-27T19:28:36;18.83;;;6.70;;
12232;SDS011;6179;51.748;8.728;2024-01-27T19:34:37;20.13;;;6.20;;
12232;SDS011;6179;51.748;8.728;2024-01-27T19:40:37;31.23;;;9.03;;
12232;SDS011;6179;51.748;8.728;2024-01-27T19:46:38;15.37;;;5.80;;
12232;SDS011;6179;51.748;8.728;2024-01-27T19:52:39;25.53;;;7.33;;
12232;SDS011;6179;51.748;8.728;2024-01-27T19:58:40;12.00;;;5.30;;
12232;SDS011;6179;51.748;8.728;2024-01-27T20:04:41;9.10;;;3.93;;
12232;SDS011;6179;51.748;8.728;2024-01-27T20:10:47;9.37;;;4.10;;
12232;SDS011;6179;51.748;8.728;2024-01-27T20:16:48;8.00;;;3.47;;
12232;SDS011;6179;51.748;8.728;2024-01-27T20:22:49;7.87;;;3.10;;
12232;SDS011;6179;51.748;8.728;2024-01-27T20:28:52;9.63;;;4.90;;
12232;SDS011;6179;51.748;8.728;2024-01-27T20:34:53;3.80;;;3.10;;
12232;SDS011;6179;51.748;8.728;2024-01-27T20:40:54;17.43;;;6.83;;
12232;SDS011;6179;51.748;8.728;2024-01-27T20:46:55;10.27;;;4.50;;
12232;SDS011;6179;51.748;8.728;2024-01-27T20:52:56;4.20;;;3.20;;
12232;SDS011;6179;51.748;8.728;2024-01-27T20:58:58;21.17;;;3.53;;
12232;SDS011;6179;51.748;8.728;2024-01-27T21:04:59;12.93;;;4.87;;
12232;SDS011;6179;51.748;8.728;2024-01-27T21:10:59;6.30;;;3.27;;
12232;SDS011;6179;51.748;8.728;2024-01-27T21:17:03;3.00;;;1.73;;
12232;SDS011;6179;51.748;8.728;2024-01-27T21:23:03;9.47;;;3.20;;
12232;SDS011;6179;51.748;8.728;2024-01-27T21:29:07;10.63;;;3.03;;
12232;SDS011;6179;51.748;8.728;2024-01-27T21:35:09;9.87;;;4.70;;
12232;SDS011;6179;51.748;8.728;2024-01-27T21:41:10;7.07;;;2.60;;
12232;SDS011;6179;51.748;8.728;2024-01-27T21:47:11;15.40;;;4.80;;
12232;SDS011;6179;51.748;8.728;2024-01-27T21:53:12;23.33;;;5.00;;
12232;SDS011;6179;51.748;8.728;2024-01-27T21:59:13;4.20;;;3.80;;
12232;SDS011;6179;51.748;8.728;2024-01-27T22:05:15;7.03;;;3.67;;
12232;SDS011;6179;51.748;8.728;2024-01-27T22:11:16;9.87;;;4.80;;
12232;SDS011;6179;51.748;8.728;2024-01-27T22:17:17;14.07;;;3.83;;
12232;SDS011;6179;51.748;8.728;2024-01-27T22:23:17;10.30;;;3.43;;
12232;SDS011;6179;51.748;8.728;2024-01-27T22:29:18;4.60;;;2.53;;
12232;SDS011;6179;51.748;8.728;2024-01-27T22:35:19;7.40;;;3.90;;
12232;SDS011;6179;51.748;8.728;2024-01-27T22:41:20;12.67;;;6.10;;
12232;SDS011;6179;51.748;8.728;2024-01-27T22:47:22;9.40;;;4.40;;
12232;SDS011;6179;51.748;8.728;2024-01-27T22:53:23;14.27;;;5.30;;
12232;SDS011;6179;51.748;8.728;2024-01-27T22:59:24;14.20;;;5.30;;
12232;SDS011;6179;51.748;8.728;2024-01-27T23:05:25;13.87;;;5.70;;
12232;SDS011;6179;51.748;8.728;2024-01-27T23:11:26;16.90;;;6.30;;
12232;SDS011;6179;51.748;8.728;2024-01-27T23:17:28;23.87;;;6.33;;
12232;SDS011;6179;51.748;8.728;2024-01-27T23:23:28;19.43;;;6.17;;
12232;SDS011;6179;51.748;8.728;2024-01-27T23:29:29;16.97;;;4.30;;
12232;SDS011;6179;51.748;8.728;2024-01-27T23:35:37;16.07;;;4.60;;
12232;SDS011;6179;51.748;8.728;2024-01-27T23:41:37;12.67;;;5.07;;
12232;SDS011;6179;51.748;8.728;2024-01-27T23:47:40;9.60;;;3.40;;
12232;SDS011;6179;51.748;8.728;2024-01-27T23:53:40;16.07;;;4.93;;
12232;SDS011;6179;51.748;8.728;2024-01-27T23:59:45;7.93;;;3.43;;
